Time;durP1;ratioP1;P1;durP2;ratioP2;P2;SDS_P1;SDS_P2;PMS_P1;PMS_P2;Temp;Humidity;BMP_temperature;BMP_pressure;BME280_temperature;BME280_humidity;BME280_pressure;Samples;Min_cycle;Max_cycle;Signal;HPM_P1;HPM_P2
2023/06/28 06:51:46;;;;;;;;;10.00;9.00;;;;;22.52;49.28;101675.63;5061604;27;45753;-89
2023/06/28 06:54:11;;;;;;;;;9.00;7.67;;;;;22.69;48.81;101673.28;5062758;28;45546;-85
2023/06/28 06:56:36;;;;;;;;;9.00;9.00;;;;;22.89;48.44;101672.31;5068165;28;45613;-87
2023/06/28 06:59:02;;;;;;;;;7.67;6.33;;;;;23.09;48.44;101676.88;5062315;28;48693;-88
2023/06/28 07:01:29;;;;;;;;;8.00;7.33;;;;;23.28;47.73;101676.88;5068726;27;45972;-87
2023/06/28 07:03:55;;;;;;;;;9.67;9.67;;;;;23.47;47.70;101677.88;5068548;28;45510;-86
2023/06/28 07:06:20;;;;;;;;;6.00;6.00;;;;;23.64;47.16;101678.97;5069035;28;45459;-87
2023/06/28 07:08:46;;;;;;;;;7.00;7.00;;;;;23.80;47.00;101670.19;5068203;28;55126;-86
2023/06/28 07:11:12;;;;;;;;;9.00;9.00;;;;;23.95;46.54;101676.00;5062042;28;46265;-86
2023/06/28 07:13:38;;;;;;;;;9.00;7.33;;;;;24.10;46.33;101672.84;5058907;28;46284;-89
2023/06/28 07:16:03;;;;;;;;;7.00;7.00;;;;;24.22;46.37;101676.19;5062404;28;45461;-88
2023/06/28 07:18:29;;;;;;;;;9.00;9.00;;;;;24.34;45.98;101674.13;5066989;28;45866;-88
2023/06/28 07:20:54;;;;;;;;;8.67;8.67;;;;;24.46;45.47;101677.50;5067091;28;46084;-89
2023/06/28 07:23:20;;;;;;;;;10.33;8.67;;;;;24.57;45.35;101676.44;5064446;28;45444;-85
2023/06/28 07:25:45;;;;;;;;;10.67;10.00;;;;;24.66;44.48;101677.38;5067375;28;45434;-90
2023/06/28 07:28:11;;;;;;;;;8.00;8.00;;;;;24.72;44.57;101677.59;5067073;27;45667;-86
2023/06/28 07:30:59;;;;;;;;;8.67;8.67;;;;;24.83;44.78;101687.44;5073502;27;46069;-87
2023/06/28 07:33:25;;;;;;;;;8.67;8.67;;;;;24.91;44.35;101683.06;5059074;28;45336;-87
2023/06/28 07:35:51;;;;;;;;;8.67;8.67;;;;;24.98;44.22;101689.59;5056411;28;45452;-87
2023/06/28 07:38:18;;;;;;;;;8.33;8.00;;;;;25.04;44.30;101686.25;5062533;28;45400;-83
2023/06/28 07:40:45;;;;;;;;;11.00;10.00;;;;;25.11;44.36;101689.19;5066039;27;45698;-84
2023/06/28 07:43:10;;;;;;;;;9.33;9.33;;;;;25.13;43.92;101685.31;5067305;27;45491;-83
2023/06/28 07:45:36;;;;;;;;;12.00;9.67;;;;;25.20;43.78;101674.69;5067367;27;51838;-83
2023/06/28 07:48:01;;;;;;;;;8.33;8.33;;;;;25.24;43.53;101680.63;5067863;27;45600;-82
2023/06/28 07:50:26;;;;;;;;;7.67;7.67;;;;;25.27;43.86;101681.16;5058890;28;48030;-79
2023/06/28 07:52:52;;;;;;;;;8.67;8.67;;;;;25.32;43.44;101682.56;5064723;28;59833;-85
2023/06/28 07:55:17;;;;;;;;;13.67;10.33;;;;;25.37;43.43;101674.78;5063376;28;45414;-84
2023/06/28 07:57:42;;;;;;;;;9.67;7.33;;;;;25.39;43.56;101675.50;5068221;28;45614;-82
2023/06/28 08:00:10;;;;;;;;;12.67;12.67;;;;;25.42;43.35;101669.72;5066787;28;48978;-82
2023/06/28 08:02:35;;;;;;;;;14.00;11.00;;;;;25.45;43.40;101677.56;5055907;28;45367;-82
2023/06/28 08:05:00;;;;;;;;;14.67;13.00;;;;;25.50;42.57;101668.97;5051381;28;45565;-82
2023/06/28 08:07:25;;;;;;;;;12.00;11.00;;;;;25.50;43.13;101667.06;5054552;28;45420;-82
2023/06/28 08:09:51;;;;;;;;;11.33;11.33;;;;;25.55;42.59;101668.47;5051406;28;57412;-88
2023/06/28 08:12:16;;;;;;;;;13.00;10.00;;;;;25.56;43.14;101673.78;5051877;28;46377;-86
2023/06/28 08:14:42;;;;;;;;;9.67;8.33;;;;;25.57;42.63;101670.03;5045538;28;45745;-83
2023/06/28 08:17:07;;;;;;;;;10.67;8.33;;;;;25.61;43.14;101671.44;5050987;28;45645;-84
2023/06/28 08:19:32;;;;;;;;;12.00;10.00;;;;;25.64;43.02;101675.69;5050928;28;46061;-84
2023/06/28 08:21:58;;;;;;;;;11.00;11.00;;;;;25.65;43.04;101667.38;5053665;28;51219;-83
2023/06/28 08:24:24;;;;;;;;;12.33;11.33;;;;;25.68;42.95;101668.06;5052519;28;45343;-84
2023/06/28 08:26:49;;;;;;;;;9.33;9.33;;;;;25.71;42.91;101671.31;5052952;28;45492;-83
2023/06/28 08:29:16;;;;;;;;;11.33;8.67;;;;;25.73;43.02;101669.28;5046826;28;46132;-83
2023/06/28 08:31:42;;;;;;;;;10.67;9.67;;;;;25.76;42.54;101668.13;5049068;28;45390;-86
2023/06/28 08:34:07;;;;;;;;;10.67;8.67;;;;;25.78;42.76;101661.50;5049397;28;45610;-87
2023/06/28 08:36:32;;;;;;;;;9.33;9.33;;;;;25.81;43.05;101660.31;5049123;28;45926;-87
2023/06/28 08:38:57;;;;;;;;;8.67;7.67;;;;;25.84;43.25;101654.56;5052147;28;53618;-86
2023/06/28 08:41:24;;;;;;;;;10.33;10.00;;;;;25.87;43.34;101656.94;5051551;28;55174;-92
2023/06/28 08:43:53;;;;;;;;;12.00;10.00;;;;;25.88;43.19;101653.22;5050897;28;45882;-89
2023/06/28 08:46:18;;;;;;;;;9.00;8.33;;;;;25.92;43.18;101651.03;5054769;28;45773;-93
2023/06/28 08:48:45;;;;;;;;;8.33;8.33;;;;;25.95;43.33;101652.56;5053038;28;46380;-85
2023/06/28 08:51:11;;;;;;;;;11.33;10.00;;;;;25.96;42.72;101649.69;5053292;28;45751;-83
2023/06/28 08:53:37;;;;;;;;;12.00;9.00;;;;;25.98;43.21;101635.91;5050816;28;45437;-87
2023/06/28 08:56:03;;;;;;;;;12.67;10.00;;;;;26.01;43.05;101646.47;5046924;28;45545;-85
2023/06/28 08:58:29;;;;;;;;;11.00;10.33;;;;;26.04;42.22;101648.88;5044309;28;46400;-89
2023/06/28 09:00:56;;;;;;;;;9.33;8.00;;;;;26.04;42.11;101640.72;5044036;28;46849;-78
2023/06/28 09:03:22;;;;;;;;;12.67;9.00;;;;;26.04;41.90;101652.44;5038115;28;45621;-78
2023/06/28 09:05:48;;;;;;;;;12.00;10.33;;;;;26.03;41.54;101645.28;5052898;28;45362;-78
2023/06/28 09:08:15;;;;;;;;;10.00;9.00;;;;;26.03;41.73;101645.28;5049651;28;45324;-77
2023/06/28 09:10:41;;;;;;;;;8.00;8.00;;;;;26.03;42.02;101637.13;5044298;28;45563;-89
2023/06/28 09:13:07;;;;;;;;;10.00;9.33;;;;;26.07;41.94;101642.25;5043788;28;45561;-85
2023/06/28 09:15:35;;;;;;;;;11.67;10.33;;;;;26.07;41.78;101637.66;5051182;28;46416;-83
2023/06/28 09:18:00;;;;;;;;;10.33;10.33;;;;;26.08;41.60;101638.50;5049165;28;46098;-86
2023/06/28 09:20:26;;;;;;;;;11.67;9.00;;;;;26.08;41.42;101633.94;5045577;28;56525;-80
2023/06/28 09:22:59;;;;;;;;;8.33;7.67;;;;;26.10;41.36;101636.47;5048953;28;45895;-78
2023/06/28 09:25:27;;;;;;;;;9.00;9.00;;;;;26.11;41.08;101635.47;5047421;28;45567;-78
2023/06/28 09:27:55;;;;;;;;;10.00;10.00;;;;;26.10;41.56;101634.63;5044396;28;45392;-79
2023/06/28 09:30:21;;;;;;;;;10.33;9.33;;;;;26.10;41.08;101640.06;5051092;28;45573;-78
2023/06/28 09:32:51;;;;;;;;;9.67;9.67;;;;;26.12;41.08;101639.91;5052009;28;45399;-80
2023/06/28 09:35:20;;;;;;;;;13.00;11.33;;;;;26.10;41.55;101636.47;5049591;28;45375;-80
2023/06/28 09:38:09;;;;;;;;;10.00;9.67;;;;;26.13;41.05;101638.88;5050051;28;45666;-80
2023/06/28 09:40:35;;;;;;;;;10.67;10.00;;;;;26.13;41.39;101633.44;5050571;28;45863;-80
2023/06/28 09:43:01;;;;;;;;;9.67;8.67;;;;;26.12;41.00;101632.56;5047313;28;45375;-79
2023/06/28 09:45:30;;;;;;;;;12.33;9.67;;;;;26.14;41.39;101632.41;5044418;28;45643;-93
2023/06/28 09:47:57;;;;;;;;;9.00;9.00;;;;;26.15;41.27;101621.38;5048305;28;45602;-89
2023/06/28 09:50:39;;;;;;;;;12.33;11.00;;;;;26.17;40.80;101621.22;5051619;28;45584;-88
2023/06/28 09:53:08;;;;;;;;;10.33;10.33;;;;;26.17;41.50;101622.03;5050623;28;45490;-87
2023/06/28 09:55:34;;;;;;;;;9.67;9.67;;;;;26.17;41.62;101615.75;5050954;28;45409;-91
2023/06/28 09:58:00;;;;;;;;;11.67;9.33;;;;;26.18;41.15;101618.31;5047817;28;46231;-92
2023/06/28 10:00:28;;;;;;;;;10.67;10.00;;;;;26.21;40.96;101608.13;5050206;28;45336;-92
2023/06/28 10:02:54;;;;;;;;;4.33;4.33;;;;;26.23;40.86;101612.38;5051051;28;45550;-90
2023/06/28 10:05:20;;;;;;;;;9.00;9.00;;;;;26.23;41.10;101606.09;5047376;28;45486;-89
2023/06/28 10:07:47;;;;;;;;;10.00;8.00;;;;;26.23;40.75;101601.50;5042653;28;45537;-84
2023/06/28 10:10:13;;;;;;;;;8.67;8.00;;;;;26.24;40.73;101600.47;5046757;28;45677;-88
2023/06/28 10:12:40;;;;;;;;;12.00;7.33;;;;;26.24;41.13;101588.75;5048678;28;45515;-90
2023/06/28 10:15:20;;;;;;;;;9.33;9.33;;;;;26.25;40.76;101590.47;5049139;28;45413;-89
2023/06/28 10:17:46;;;;;;;;;10.00;10.00;;;;;26.25;41.06;101594.06;5041825;28;46172;-85
2023/06/28 10:20:11;;;;;;;;;12.00;8.00;;;;;26.27;41.32;101580.25;5045783;28;45634;-90
2023/06/28 10:22:37;;;;;;;;;11.00;11.00;;;;;26.26;40.70;101576.72;5041804;28;45444;-88
2023/06/28 10:25:05;;;;;;;;;9.00;7.00;;;;;26.28;41.32;101582.00;5051052;28;45601;-89
2023/06/28 10:27:33;;;;;;;;;9.33;8.00;;;;;26.30;41.16;101586.25;5043407;28;45585;-91
2023/06/28 10:30:00;;;;;;;;;7.00;7.00;;;;;26.32;41.46;101583.34;5047850;28;45688;-89
2023/06/28 10:32:27;;;;;;;;;8.00;8.00;;;;;26.33;41.63;101590.50;5051067;28;45443;-86
2023/06/28 10:34:53;;;;;;;;;8.00;8.00;;;;;26.33;40.81;101576.91;5051032;28;45442;-90
2023/06/28 10:37:22;;;;;;;;;10.00;10.00;;;;;26.36;41.41;101583.88;5048735;28;45519;-89
2023/06/28 10:39:52;;;;;;;;;10.33;10.33;;;;;26.37;41.41;101583.72;5047180;28;45402;-82
2023/06/28 10:42:19;;;;;;;;;11.00;9.67;;;;;26.38;41.21;101579.09;5048835;28;45567;-87
2023/06/28 10:44:57;;;;;;;;;9.67;9.67;;;;;26.40;41.03;101577.09;5043580;28;45612;-91
2023/06/28 10:47:23;;;;;;;;;10.00;9.00;;;;;26.41;41.09;101573.34;5049862;28;45435;-87
2023/06/28 10:50:09;;;;;;;;;9.67;9.67;;;;;26.42;41.27;101573.16;5050297;28;45693;-91
2023/06/28 10:52:35;;;;;;;;;7.33;7.33;;;;;26.42;41.15;101572.31;5046244;28;45576;-83
2023/06/28 10:55:03;;;;;;;;;10.00;10.00;;;;;26.43;41.59;101566.69;5047818;28;45739;-86
2023/06/28 10:57:41;;;;;;;;;11.33;10.00;;;;;26.47;41.38;101563.63;5047597;28;45933;-83
2023/06/28 11:00:27;;;;;;;;;9.67;9.00;;;;;26.46;40.87;101572.81;5051607;28;45873;-83
2023/06/28 11:02:59;;;;;;;;;10.33;8.33;;;;;26.48;41.28;101568.06;5045424;28;45653;-82
2023/06/28 11:05:53;;;;;;;;;8.67;8.67;;;;;26.48;40.96;101574.34;5047804;28;45443;-82
2023/06/28 11:08:20;;;;;;;;;8.00;8.00;;;;;26.48;41.40;101554.47;5050979;28;46157;-83
2023/06/28 11:10:54;;;;;;;;;8.00;8.00;;;;;26.49;40.80;101561.59;5041316;28;45399;-83
2023/06/28 11:13:50;;;;;;;;;9.33;9.33;;;;;26.50;41.46;101560.56;5047644;28;45537;-83
2023/06/28 11:16:23;;;;;;;;;9.00;9.00;;;;;26.51;40.85;101557.69;5049595;28;45566;-84
2023/06/28 11:18:51;;;;;;;;;11.00;9.33;;;;;26.52;41.08;101551.22;5041190;28;46232;-83
2023/06/28 11:21:24;;;;;;;;;9.67;8.33;;;;;26.53;41.49;101549.34;5045160;28;46398;-91
2023/06/28 11:23:54;;;;;;;;;9.00;8.67;;;;;26.53;41.40;101552.06;5048804;28;45491;-89
2023/06/28 11:26:33;;;;;;;;;9.00;8.67;;;;;26.54;40.89;101560.09;5050596;28;45629;-87
2023/06/28 11:28:58;;;;;;;;;11.00;11.00;;;;;26.53;40.82;101549.34;5047828;28;47192;-87
2023/06/28 11:31:36;;;;;;;;;10.67;9.00;;;;;26.51;41.17;101546.81;5042783;28;45505;-89
2023/06/28 11:34:02;;;;;;;;;11.00;9.00;;;;;26.51;41.45;101544.06;5045191;28;45603;-89
2023/06/28 11:36:29;;;;;;;;;13.00;10.67;;;;;26.53;41.03;101546.63;5050388;28;45625;-89
2023/06/28 11:38:54;;;;;;;;;10.00;10.00;;;;;26.53;40.95;101552.91;5044635;28;47037;-89
2023/06/28 11:41:19;;;;;;;;;9.00;8.33;;;;;26.53;40.92;101544.75;5052486;28;45716;-90
2023/06/28 11:43:46;;;;;;;;;11.00;10.67;;;;;26.53;41.61;101547.47;5050059;28;45647;-90
2023/06/28 11:46:19;;;;;;;;;10.67;10.67;;;;;26.52;40.94;101540.31;5050168;28;45487;-89
2023/06/28 11:48:46;;;;;;;;;10.67;9.67;;;;;26.54;41.62;101534.72;5052087;28;45678;-89
2023/06/28 11:51:12;;;;;;;;;12.00;9.33;;;;;26.55;41.37;101536.41;5052750;28;45468;-89
2023/06/28 11:53:38;;;;;;;;;10.33;9.67;;;;;26.55;41.03;101542.72;5045148;28;45453;-93
2023/06/28 11:56:04;;;;;;;;;13.67;10.67;;;;;26.55;41.62;101530.97;5050667;28;45474;-93
2023/06/28 11:58:34;;;;;;;;;9.00;9.00;;;;;26.54;41.64;101535.59;5045438;28;45518;-93
2023/06/28 12:01:01;;;;;;;;;14.33;11.00;;;;;26.55;41.43;101530.97;5067493;28;45614;-94
2023/06/28 12:03:31;;;;;;;;;10.00;10.00;;;;;26.55;41.33;101534.56;5054791;28;45679;-93
2023/06/28 12:05:57;;;;;;;;;10.67;10.00;;;;;26.55;41.16;101537.28;5050355;28;45601;-83
2023/06/28 12:08:22;;;;;;;;;12.00;11.00;;;;;26.56;41.25;101530.81;5050075;28;45808;-86
2023/06/28 12:10:48;;;;;;;;;11.33;11.33;;;;;26.55;42.06;101531.84;5044203;28;45652;-91
2023/06/28 12:13:23;;;;;;;;;10.00;10.00;;;;;26.56;41.61;101524.50;5049717;28;45803;-91
2023/06/28 12:15:49;;;;;;;;;10.33;9.00;;;;;26.53;41.81;101522.97;5050656;28;45639;-87
2023/06/28 12:18:15;;;;;;;;;10.00;10.00;;;;;26.55;42.06;101526.38;5052232;28;46091;-88
2023/06/28 12:20:41;;;;;;;;;11.00;8.67;;;;;26.56;41.83;101524.50;5053174;28;45446;-88
2023/06/28 12:23:13;;;;;;;;;10.67;8.33;;;;;26.56;42.21;101516.31;5051755;28;45489;-91
2023/06/28 12:25:42;;;;;;;;;13.67;10.33;;;;;26.56;41.96;101514.47;5052805;28;45648;-87
2023/06/28 12:28:11;;;;;;;;;8.33;8.33;;;;;26.56;42.26;101509.03;5052207;28;45836;-84
2023/06/28 12:30:36;;;;;;;;;7.33;7.33;;;;;26.58;42.15;101515.13;5044113;28;45705;-88
2023/06/28 12:33:06;;;;;;;;;10.67;10.33;;;;;26.60;42.69;101511.41;5053322;28;45483;-92
2023/06/28 12:35:32;;;;;;;;;7.00;7.00;;;;;26.60;42.86;101508.69;5049489;28;45645;-80
2023/06/28 12:37:58;;;;;;;;;8.67;5.67;;;;;26.61;42.33;101508.53;5047553;28;46491;-80
2023/06/28 12:40:32;;;;;;;;;9.67;9.67;;;;;26.62;42.19;101512.94;5046253;28;45792;-80
2023/06/28 12:43:14;;;;;;;;;8.00;8.00;;;;;26.60;41.96;101501.34;5053054;28;45512;-80
2023/06/28 12:45:49;;;;;;;;;7.33;7.33;;;;;26.60;42.47;101506.81;5053478;28;45726;-81
2023/06/28 12:48:16;;;;;;;;;7.67;7.67;;;;;26.61;42.50;101511.25;5052214;28;46939;-80
2023/06/28 12:50:43;;;;;;;;;10.67;10.00;;;;;26.60;42.35;101508.69;5050423;28;46663;-81
2023/06/28 12:53:09;;;;;;;;;7.67;7.67;;;;;26.60;42.47;101505.97;5053058;28;45383;-80
2023/06/28 12:55:34;;;;;;;;;9.00;9.00;;;;;26.60;42.47;101514.97;5050040;28;45462;-78
2023/06/28 12:57:59;;;;;;;;;11.67;7.67;;;;;26.58;43.19;101506.97;5042962;28;46088;-81
2023/06/28 13:00:24;;;;;;;;;13.67;12.33;;;;;26.54;42.64;101500.19;5051178;28;45501;-86
2023/06/28 13:02:50;;;;;;;;;10.33;8.33;;;;;26.53;42.74;101493.03;5048252;28;46396;-80
2023/06/28 13:05:15;;;;;;;;;15.67;8.67;;;;;26.51;42.95;101496.94;5052778;28;57491;-87
2023/06/28 13:07:40;;;;;;;;;10.67;9.00;;;;;26.53;43.02;101498.47;5052632;28;46260;-91
2023/06/28 13:10:09;;;;;;;;;11.00;10.33;;;;;26.50;43.59;101495.25;5053969;28;45683;-91
2023/06/28 13:12:34;;;;;;;;;9.00;9.00;;;;;26.48;43.50;101491.84;5051593;28;45988;-86
2023/06/28 13:14:59;;;;;;;;;10.00;10.00;;;;;26.48;43.61;101489.13;5051560;28;45636;-87
2023/06/28 13:17:25;;;;;;;;;10.00;9.33;;;;;26.46;43.72;101481.13;5050500;28;45816;-83
2023/06/28 13:19:50;;;;;;;;;9.00;9.00;;;;;26.45;43.39;101474.00;5049858;28;45590;-85
2023/06/28 13:22:15;;;;;;;;;14.33;10.00;;;;;26.47;43.14;101477.38;5047476;28;46036;-87
2023/06/28 13:24:41;;;;;;;;;9.00;9.00;;;;;26.46;43.17;101478.41;5053060;28;45620;-86
2023/06/28 13:27:06;;;;;;;;;9.00;9.00;;;;;26.45;43.79;101471.28;5049473;28;46136;-84
2023/06/28 13:29:31;;;;;;;;;11.00;10.67;;;;;26.43;43.96;101474.16;5050686;28;52350;-85
2023/06/28 13:31:57;;;;;;;;;9.33;9.33;;;;;26.39;43.66;101464.63;5050467;28;45390;-82
2023/06/28 13:34:22;;;;;;;;;8.33;8.33;;;;;26.39;43.65;101469.22;5051555;28;46386;-82
2023/06/28 13:36:47;;;;;;;;;8.00;8.00;;;;;26.38;43.83;101464.81;5051886;28;45685;-86
2023/06/28 13:39:13;;;;;;;;;9.33;8.33;;;;;26.35;44.22;101462.44;5047116;28;45655;-84
2023/06/28 13:41:40;;;;;;;;;6.67;6.33;;;;;26.36;44.11;101464.97;5046400;28;46991;-92
2023/06/28 13:44:06;;;;;;;;;10.33;8.67;;;;;26.37;44.42;101466.69;5048302;28;45536;-91
2023/06/28 13:46:31;;;;;;;;;8.00;7.67;;;;;26.35;43.95;101459.72;5043172;28;45545;-84
2023/06/28 13:48:56;;;;;;;;;9.00;9.00;;;;;26.38;43.89;101454.78;5044377;28;45700;-87
2023/06/28 13:51:22;;;;;;;;;8.00;8.00;;;;;26.39;44.33;101464.63;5052959;28;45439;-90
2023/06/28 13:53:47;;;;;;;;;7.33;7.00;;;;;26.40;44.20;101458.16;5049536;28;45414;-88
2023/06/28 13:56:12;;;;;;;;;8.33;8.33;;;;;26.40;44.14;101457.34;5051519;28;46845;-87
2023/06/28 13:58:38;;;;;;;;;9.00;8.67;;;;;26.42;44.28;101463.44;5038840;28;45414;-90
2023/06/28 14:01:03;;;;;;;;;9.33;7.67;;;;;26.42;43.91;101455.28;5052076;28;45400;-87
2023/06/28 14:03:29;;;;;;;;;6.00;6.00;;;;;26.43;44.38;101456.97;5048116;28;45567;-85
2023/06/28 14:05:54;;;;;;;;;9.33;8.67;;;;;26.41;44.62;101451.69;5047333;28;54380;-79
2023/06/28 14:08:20;;;;;;;;;8.33;8.33;;;;;26.43;44.54;101451.53;5049541;28;45537;-81
2023/06/28 14:10:46;;;;;;;;;7.33;6.00;;;;;26.47;45.01;101458.34;5051016;28;45384;-81
2023/06/28 14:13:13;;;;;;;;;6.67;6.67;;;;;26.51;45.14;101453.38;5048682;28;45479;-81
2023/06/28 14:15:39;;;;;;;;;8.00;8.00;;;;;26.55;44.32;101446.59;5051081;28;47163;-82
2023/06/28 14:18:04;;;;;;;;;7.33;7.00;;;;;26.56;45.07;101449.13;5049560;28;45848;-81
2023/06/28 14:20:30;;;;;;;;;5.33;5.33;;;;;26.60;44.56;101454.25;5051437;28;45508;-82
2023/06/28 14:22:55;;;;;;;;;8.67;7.00;;;;;26.61;45.04;101448.63;5050901;28;45470;-82
2023/06/28 14:25:20;;;;;;;;;6.33;6.33;;;;;26.63;45.26;101438.41;5050402;28;67712;-83
2023/06/28 14:27:45;;;;;;;;;6.67;6.67;;;;;26.65;45.32;101444.53;5050655;28;45429;-86
2023/06/28 14:30:12;;;;;;;;;5.33;5.00;;;;;26.69;44.89;101445.06;5045733;28;45425;-85
2023/06/28 14:32:37;;;;;;;;;6.33;6.33;;;;;26.71;45.44;101437.53;5050381;28;45376;-83
2023/06/28 14:35:03;;;;;;;;;8.33;6.00;;;;;26.72;45.33;101431.06;5050936;28;45668;-81
2023/06/28 14:37:29;;;;;;;;;6.67;5.33;;;;;26.72;45.71;101433.78;5050938;28;45900;-83
2023/06/28 14:39:54;;;;;;;;;6.67;6.00;;;;;26.74;45.84;101431.75;5047475;28;45531;-81
2023/06/28 14:42:19;;;;;;;;;5.33;5.33;;;;;26.75;45.77;101432.59;5046806;28;47133;-82
2023/06/28 14:44:45;;;;;;;;;7.67;7.00;;;;;26.76;45.21;101432.41;5047442;28;51614;-80
2023/06/28 14:47:10;;;;;;;;;7.33;6.33;;;;;26.78;45.32;101424.94;5050523;28;56604;-86
2023/06/28 14:49:35;;;;;;;;;8.00;8.00;;;;;26.80;46.06;101425.59;5051921;28;45578;-87
2023/06/28 14:52:01;;;;;;;;;7.00;7.00;;;;;26.81;45.60;101418.31;5050822;28;45457;-84
2023/06/28 14:54:26;;;;;;;;;2.00;2.00;;;;;26.82;45.75;101420.81;5047412;28;47227;-85
2023/06/28 14:56:51;;;;;;;;;5.67;5.67;;;;;26.83;45.62;101417.09;5046787;28;54938;-84
2023/06/28 14:59:17;;;;;;;;;5.33;5.33;;;;;26.84;45.98;101409.75;5049300;28;45619;-84
2023/06/28 15:01:42;;;;;;;;;5.33;5.00;;;;;26.87;45.55;101417.59;5050721;28;45479;-86
2023/06/28 15:04:07;;;;;;;;;7.67;6.00;;;;;26.87;46.27;101405.84;5051350;28;46882;-84
2023/06/28 15:06:32;;;;;;;;;6.00;6.00;;;;;26.88;46.18;101408.38;5048459;28;57983;-82
2023/06/28 15:08:58;;;;;;;;;0.00;0.00;;;;;26.89;46.14;101404.63;5038713;28;57639;-83
2023/06/28 15:11:23;;;;;;;;;4.33;4.33;;;;;26.91;45.58;101408.06;5042611;28;54304;-84
2023/06/28 15:13:48;;;;;;;;;7.33;7.33;;;;;26.90;46.04;101403.63;5054324;28;46192;-83
2023/06/28 15:16:14;;;;;;;;;5.00;4.67;;;;;26.91;45.95;101404.47;5052707;28;45429;-84
2023/06/28 15:18:39;;;;;;;;;5.33;5.33;;;;;26.89;46.15;101399.19;5052439;28;45640;-81
2023/06/28 15:21:04;;;;;;;;;3.67;3.67;;;;;26.89;45.88;101399.19;5053641;28;45391;-84
2023/06/28 15:23:31;;;;;;;;;7.00;6.33;;;;;26.89;46.54;101396.47;5052780;28;45571;-80
2023/06/28 15:25:57;;;;;;;;;4.67;4.67;;;;;26.88;46.07;101397.50;5053627;28;45571;-84
2023/06/28 15:28:22;;;;;;;;;5.33;5.33;;;;;26.90;46.75;101391.88;5048524;28;45632;-86
2023/06/28 15:30:47;;;;;;;;;4.33;4.00;;;;;26.88;46.12;101392.06;5054369;28;45610;-81
2023/06/28 15:33:13;;;;;;;;;6.00;6.00;;;;;26.89;46.04;101395.63;5035996;28;46001;-79
2023/06/28 15:35:39;;;;;;;;;6.67;4.33;;;;;26.89;47.09;101392.91;5053110;28;45944;-80
2023/06/28 15:38:04;;;;;;;;;4.00;4.00;;;;;26.88;46.64;101393.91;5051162;28;45560;-80
2023/06/28 15:40:34;;;;;;;;;5.00;5.00;;;;;26.88;47.03;101386.59;5053499;28;45567;-80
2023/06/28 15:42:59;;;;;;;;;9.00;7.33;;;;;26.86;45.46;101394.13;5047136;28;48240;-83
2023/06/28 15:45:25;;;;;;;;;9.00;7.33;;;;;26.82;45.13;101388.16;5054647;28;45477;-84
2023/06/28 15:47:50;;;;;;;;;7.67;7.00;;;;;26.79;44.84;101388.50;5049629;28;45495;-83
2023/06/28 15:50:16;;;;;;;;;5.00;5.00;;;;;26.78;45.39;101377.78;5052842;28;45512;-84
2023/06/28 15:52:41;;;;;;;;;7.00;7.00;;;;;26.77;45.03;101376.94;5048860;28;46094;-84
2023/06/28 15:55:07;;;;;;;;;7.00;7.00;;;;;26.78;45.05;101377.78;5048124;28;45558;-87
2023/06/28 15:57:32;;;;;;;;;8.00;8.00;;;;;26.78;45.12;101386.81;5046799;28;45436;-83
2023/06/28 15:59:58;;;;;;;;;10.00;8.33;;;;;26.79;44.44;101374.03;5047018;28;45745;-83
2023/06/28 16:02:23;;;;;;;;;7.00;6.67;;;;;26.79;44.67;101376.75;5051989;28;46415;-86
2023/06/28 16:04:48;;;;;;;;;5.67;5.67;;;;;26.81;44.64;101378.28;5051025;28;45461;-85
2023/06/28 16:07:15;;;;;;;;;7.67;7.33;;;;;26.81;44.61;101375.56;5053738;28;48584;-84
2023/06/28 16:09:40;;;;;;;;;10.33;7.67;;;;;26.80;44.48;101362.97;5053806;28;45834;-88
2023/06/28 16:12:06;;;;;;;;;7.00;7.00;;;;;26.76;44.44;101366.25;5039621;28;45719;-88
2023/06/28 16:14:31;;;;;;;;;11.00;11.00;;;;;26.73;44.71;101363.84;5049885;28;45463;-79
2023/06/28 16:16:57;;;;;;;;;8.00;6.33;;;;;26.75;44.72;101364.50;5051554;28;45496;-80
2023/06/28 16:19:22;;;;;;;;;12.00;10.67;;;;;26.77;44.24;101357.88;5041724;28;50479;-88
2023/06/28 16:21:48;;;;;;;;;10.67;8.67;;;;;26.80;44.28;101359.38;5052429;28;45458;-86
2023/06/28 16:24:13;;;;;;;;;9.00;9.00;;;;;26.83;44.56;101361.78;5059701;28;45513;-83
2023/06/28 16:26:39;;;;;;;;;9.00;8.00;;;;;26.87;44.08;101354.94;5051764;28;45478;-79
2023/06/28 16:29:04;;;;;;;;;9.00;9.00;;;;;26.90;43.96;101353.75;5050970;28;45515;-79
2023/06/28 16:31:32;;;;;;;;;10.67;9.33;;;;;26.93;44.09;101361.56;5052513;28;45950;-79
2023/06/28 16:33:57;;;;;;;;;11.00;9.67;;;;;26.93;43.95;101350.69;5053118;28;45569;-79
2023/06/28 16:36:23;;;;;;;;;10.00;9.00;;;;;26.96;44.38;101347.63;5050436;28;45855;-81
2023/06/28 16:38:48;;;;;;;;;9.00;7.00;;;;;26.99;44.58;101343.69;5046676;28;45376;-84
2023/06/28 16:41:18;;;;;;;;;9.67;9.67;;;;;27.01;43.96;101345.22;5049163;28;64008;-82
2023/06/28 16:43:43;;;;;;;;;9.67;9.67;;;;;27.04;44.05;101335.81;5051514;28;45737;-82
2023/06/28 16:46:08;;;;;;;;;9.33;8.33;;;;;27.05;43.94;101345.72;5050342;28;45423;-78
2023/06/28 16:48:35;;;;;;;;;10.00;8.67;;;;;27.04;44.34;101333.97;5040129;28;45621;-81
2023/06/28 16:51:00;;;;;;;;;6.33;6.33;;;;;27.07;44.51;101338.22;5053154;28;47030;-81
2023/06/28 16:53:25;;;;;;;;;12.67;9.33;;;;;27.08;44.49;101338.03;5042398;28;45545;-79
2023/06/28 16:55:51;;;;;;;;;7.00;7.00;;;;;27.08;44.20;101338.03;5050614;28;45505;-81
2023/06/28 16:58:16;;;;;;;;;9.67;7.00;;;;;27.07;43.59;101336.34;5040686;28;45528;-79
2023/06/28 17:00:42;;;;;;;;;10.00;8.00;;;;;27.10;44.45;101337.88;5052236;28;46056;-80
2023/06/28 17:03:07;;;;;;;;;11.00;9.00;;;;;27.10;43.80;101335.13;5049539;28;45409;-81
2023/06/28 17:05:33;;;;;;;;;8.00;8.00;;;;;27.12;44.18;101329.47;5049681;28;45502;-79
2023/06/28 17:07:58;;;;;;;;;7.33;7.00;;;;;27.11;43.71;101323.22;5052006;28;45494;-79
2023/06/28 17:10:23;;;;;;;;;10.33;9.33;;;;;27.11;44.17;101323.22;5049388;28;45569;-78
2023/06/28 17:12:49;;;;;;;;;8.00;8.00;;;;;27.12;44.07;101319.44;5047518;28;45591;-81
2023/06/28 17:15:14;;;;;;;;;5.67;5.67;;;;;27.12;43.67;101321.31;5043592;28;45877;-81
2023/06/28 17:17:39;;;;;;;;;7.33;7.33;;;;;27.12;44.28;101319.44;5045074;28;45637;-81
2023/06/28 17:20:06;;;;;;;;;7.67;7.67;;;;;27.13;43.73;101321.13;5052198;28;45481;-81
2023/06/28 17:22:35;;;;;;;;;7.00;7.00;;;;;27.12;44.22;101319.44;5038806;28;45429;-82
2023/06/28 17:25:02;;;;;;;;;11.00;8.33;;;;;27.11;43.68;101315.03;5051836;28;45643;-81
2023/06/28 17:27:27;;;;;;;;;7.67;6.00;;;;;27.10;43.63;101319.63;5048631;28;45759;-81
2023/06/28 17:29:53;;;;;;;;;9.67;9.67;;;;;27.09;43.80;101320.66;5044893;28;45533;-81
2023/06/28 17:32:18;;;;;;;;;9.33;8.00;;;;;27.08;43.94;101321.69;5046050;28;45479;-81
2023/06/28 17:34:44;;;;;;;;;7.33;7.33;;;;;27.07;43.81;101319.13;5048906;28;45457;-82
2023/06/28 17:37:09;;;;;;;;;9.33;8.67;;;;;27.09;44.15;101323.38;5046873;28;45527;-83
2023/06/28 17:39:35;;;;;;;;;9.00;7.67;;;;;27.09;44.21;101322.53;5053361;28;46649;-82
2023/06/28 17:42:00;;;;;;;;;8.33;8.33;;;;;27.09;43.99;101326.09;5050322;28;45533;-85
2023/06/28 17:44:25;;;;;;;;;11.00;9.33;;;;;27.09;44.44;101325.25;5048759;28;45528;-84
2023/06/28 17:46:51;;;;;;;;;9.33;8.33;;;;;27.05;43.87;101323.94;5049435;28;45607;-82
2023/06/28 17:49:16;;;;;;;;;8.00;8.00;;;;;27.06;43.71;101323.72;5052195;28;45930;-82
2023/06/28 17:51:41;;;;;;;;;10.33;9.00;;;;;27.06;43.92;101328.34;5049319;28;47267;-81
2023/06/28 17:54:07;;;;;;;;;12.00;9.00;;;;;27.04;43.93;101325.78;5046224;28;45720;-81
2023/06/28 17:56:32;;;;;;;;;8.67;7.67;;;;;27.04;44.19;101331.25;5048838;28;50263;-83
2023/06/28 17:58:57;;;;;;;;;9.00;9.00;;;;;27.03;43.95;101329.56;5043661;28;46167;-82
2023/06/28 18:01:23;;;;;;;;;11.00;9.67;;;;;27.02;44.21;101325.09;5047772;28;51107;-82
2023/06/28 18:03:51;;;;;;;;;10.67;9.33;;;;;27.03;45.18;101326.81;5045533;28;46003;-78
2023/06/28 18:06:20;;;;;;;;;10.00;8.67;;;;;27.03;44.27;101335.00;5052423;28;45718;-79
2023/06/28 18:08:46;;;;;;;;;12.00;9.00;;;;;27.04;44.21;101335.81;5046378;28;46406;-78